Time;durP1;ratioP1;P1;durP2;ratioP2;P2;SDS_P1;SDS_P2;PMS_P1;PMS_P2;Temp;Humidity;BMP_temperature;BMP_pressure;BME280_temperature;BME280_humidity;BME280_pressure;Samples;Min_cycle;Max_cycle;Signal;HPM_P1;HPM_P2
2023/03/13 00:01:51;;;;;;;;;;;8.70;99.90;;;;;;5059804;28;19936;-83
2023/03/13 00:04:17;;;;;;;;;;;8.70;99.90;;;;;;5057581;28;19931;-83
2023/03/13 00:06:43;;;;;;;;;;;8.70;99.90;;;;;;5069747;28;19935;-83
2023/03/13 00:09:10;;;;;;;;;;;8.70;99.90;;;;;;5092642;28;20128;-84
2023/03/13 00:11:35;;;;;;;;;;;8.70;99.90;;;;;;5059338;28;19925;-84
2023/03/13 00:14:01;;;;;;;;;;;8.70;99.90;;;;;;5091202;28;19925;-84
2023/03/13 00:16:27;;;;;;;;;;;8.60;99.90;;;;;;5093738;28;19939;-84
2023/03/13 00:18:54;;;;;;;;;;;8.60;99.90;;;;;;5074935;28;20372;-84
2023/03/13 00:21:21;;;;;;;;;;;8.60;99.90;;;;;;5059950;28;19928;-84
2023/03/13 00:23:47;;;;;;;;;;;8.60;99.90;;;;;;5091635;28;19929;-84
2023/03/13 00:26:15;;;;;;;;;;;8.60;99.90;;;;;;5083497;28;21950;-84
2023/03/13 00:28:41;;;;;;;;;;;8.60;99.90;;;;;;5092647;28;19929;-84
2023/03/13 00:31:12;;;;;;;;;;;8.60;99.90;;;;;;5092024;28;19936;-84
2023/03/13 00:33:39;;;;;;;;;;;8.60;99.90;;;;;;5094496;28;20371;-84
2023/03/13 00:36:06;;;;;;;;;;;8.50;99.90;;;;;;5058041;28;20326;-84
2023/03/13 00:38:32;;;;;;;;;;;8.50;99.90;;;;;;5075161;28;19996;-83
2023/03/13 00:40:58;;;;;;;;;;;8.50;99.90;;;;;;5085786;28;19994;-83
2023/03/13 00:43:24;;;;;;;;;;;8.50;99.90;;;;;;5090117;28;19929;-84
2023/03/13 00:45:49;;;;;;;;;;;8.50;99.90;;;;;;5057638;28;19924;-83
2023/03/13 00:48:15;;;;;;;;;;;8.60;99.90;;;;;;5058088;28;20019;-84
2023/03/13 00:50:40;;;;;;;;;;;8.50;99.90;;;;;;5055520;28;19929;-84
2023/03/13 00:53:06;;;;;;;;;;;8.50;99.90;;;;;;5061595;28;19935;-84
2023/03/13 00:55:31;;;;;;;;;;;8.50;99.90;;;;;;5086710;28;19925;-84
2023/03/13 00:57:57;;;;;;;;;;;8.50;99.90;;;;;;5060327;28;20373;-84
2023/03/13 01:00:22;;;;;;;;;;;8.50;99.90;;;;;;5061177;28;19992;-83
2023/03/13 01:02:48;;;;;;;;;;;8.50;99.90;;;;;;5055073;28;19925;-84
2023/03/13 01:05:13;;;;;;;;;;;8.50;99.90;;;;;;5045395;28;19940;-83
2023/03/13 01:07:39;;;;;;;;;;;8.50;99.90;;;;;;5090778;28;20371;-85
2023/03/13 01:10:05;;;;;;;;;;;8.60;99.90;;;;;;5056605;28;19925;-84
2023/03/13 01:12:30;;;;;;;;;;;8.60;99.90;;;;;;5057161;28;19940;-85
2023/03/13 01:14:56;;;;;;;;;;;8.50;99.90;;;;;;5088225;28;19925;-84
2023/03/13 01:17:21;;;;;;;;;;;8.50;99.90;;;;;;5060585;28;19951;-85
2023/03/13 01:19:47;;;;;;;;;;;8.60;99.90;;;;;;5058375;28;19925;-84
2023/03/13 01:22:13;;;;;;;;;;;8.50;99.90;;;;;;5087832;28;19929;-84
2023/03/13 01:24:38;;;;;;;;;;;8.60;99.90;;;;;;5054212;28;19935;-84
2023/03/13 01:27:04;;;;;;;;;;;8.60;99.90;;;;;;5037591;28;19929;-84
2023/03/13 01:29:29;;;;;;;;;;;8.50;99.90;;;;;;5060079;28;19984;-84
2023/03/13 01:31:55;;;;;;;;;;;8.60;99.90;;;;;;5058217;28;19929;-83
2023/03/13 01:34:20;;;;;;;;;;;8.50;99.90;;;;;;5065071;28;20359;-84
2023/03/13 01:36:49;;;;;;;;;;;8.60;99.90;;;;;;5058416;28;19985;-83
2023/03/13 01:39:15;;;;;;;;;;;8.60;99.90;;;;;;5063419;28;19931;-84
2023/03/13 01:41:40;;;;;;;;;;;8.60;99.90;;;;;;5061397;28;19924;-84
2023/03/13 01:44:17;;;;;;;;;;;8.60;99.90;;;;;;5077011;28;20345;-84
2023/03/13 01:46:42;;;;;;;;;;;8.60;99.90;;;;;;5069345;28;20417;-83
2023/03/13 01:49:18;;;;;;;;;;;8.60;99.90;;;;;;5075045;28;19932;-84
2023/03/13 01:51:49;;;;;;;;;;;8.60;99.90;;;;;;5065049;28;19935;-84
2023/03/13 01:54:21;;;;;;;;;;;8.60;99.90;;;;;;5078858;28;19967;-84
2023/03/13 01:56:57;;;;;;;;;;;8.60;99.90;;;;;;5064166;28;19924;-84
2023/03/13 01:59:28;;;;;;;;;;;8.60;99.90;;;;;;5066125;28;19958;-83
2023/03/13 02:01:56;;;;;;;;;;;8.60;99.90;;;;;;5065155;28;20005;-84
2023/03/13 02:04:22;;;;;;;;;;;8.50;99.90;;;;;;5080609;28;19935;-84
2023/03/13 02:06:50;;;;;;;;;;;8.60;99.90;;;;;;5093017;28;19925;-84
2023/03/13 02:09:18;;;;;;;;;;;8.60;99.90;;;;;;5075402;28;19956;-84
2023/03/13 02:12:00;;;;;;;;;;;8.50;99.90;;;;;;5065458;28;19978;-85
2023/03/13 02:14:27;;;;;;;;;;;8.50;99.90;;;;;;5063620;28;20004;-84
2023/03/13 02:16:54;;;;;;;;;;;8.50;99.90;;;;;;5066020;28;20000;-85
2023/03/13 02:19:36;;;;;;;;;;;8.50;99.90;;;;;;5065926;28;19924;-86
2023/03/13 02:22:08;;;;;;;;;;;8.50;99.90;;;;;;5068891;28;19925;-85
2023/03/13 02:24:41;;;;;;;;;;;8.50;99.90;;;;;;5098678;28;20069;-84
2023/03/13 02:27:07;;;;;;;;;;;8.50;99.90;;;;;;5073876;28;19925;-84
2023/03/13 02:29:33;;;;;;;;;;;8.50;99.90;;;;;;5071456;28;19932;-84
2023/03/13 02:31:58;;;;;;;;;;;8.50;99.90;;;;;;5064390;28;19925;-85
2023/03/13 02:34:27;;;;;;;;;;;8.50;99.90;;;;;;5098933;28;19925;-84
2023/03/13 02:36:53;;;;;;;;;;;8.60;99.90;;;;;;5064173;28;20454;-84
2023/03/13 02:39:20;;;;;;;;;;;8.60;99.90;;;;;;5097499;28;19924;-85
2023/03/13 02:41:46;;;;;;;;;;;8.60;99.90;;;;;;5059369;28;19925;-84
2023/03/13 02:44:11;;;;;;;;;;;8.70;99.90;;;;;;5061958;28;19971;-84
2023/03/13 02:46:49;;;;;;;;;;;8.70;99.90;;;;;;5093460;28;19972;-84
2023/03/13 02:49:28;;;;;;;;;;;8.70;99.90;;;;;;5091792;28;19929;-84
2023/03/13 02:51:55;;;;;;;;;;;8.70;99.90;;;;;;5093444;28;19955;-85
2023/03/13 02:54:23;;;;;;;;;;;8.80;99.90;;;;;;5090628;28;19984;-85
2023/03/13 02:56:50;;;;;;;;;;;8.80;99.90;;;;;;5089753;28;19928;-85
2023/03/13 02:59:16;;;;;;;;;;;8.80;99.90;;;;;;5063001;28;19924;-85
2023/03/13 03:01:42;;;;;;;;;;;8.80;99.90;;;;;;5065982;28;19928;-84
2023/03/13 03:04:07;;;;;;;;;;;8.90;99.90;;;;;;5067255;28;20249;-84
2023/03/13 03:06:33;;;;;;;;;;;8.90;99.90;;;;;;5060503;28;20062;-84
2023/03/13 03:08:59;;;;;;;;;;;8.90;99.90;;;;;;5092565;28;19929;-85
2023/03/13 03:11:24;;;;;;;;;;;8.90;99.90;;;;;;5093156;28;19960;-84
2023/03/13 03:13:50;;;;;;;;;;;9.00;99.90;;;;;;5060604;28;19932;-84
2023/03/13 03:16:19;;;;;;;;;;;9.10;99.90;;;;;;5060612;28;19988;-84
2023/03/13 03:18:45;;;;;;;;;;;9.10;99.90;;;;;;5065563;28;19928;-85
2023/03/13 03:21:10;;;;;;;;;;;9.10;99.90;;;;;;5063563;28;19940;-85
2023/03/13 03:23:36;;;;;;;;;;;9.10;99.90;;;;;;5061400;28;19925;-84
2023/03/13 03:26:03;;;;;;;;;;;9.20;99.90;;;;;;5059931;28;19978;-84
2023/03/13 03:28:28;;;;;;;;;;;9.20;99.90;;;;;;5059495;28;19928;-84
2023/03/13 03:30:54;;;;;;;;;;;9.20;99.90;;;;;;5061021;28;19924;-84
2023/03/13 03:33:20;;;;;;;;;;;9.30;99.90;;;;;;5092054;28;19962;-85
2023/03/13 03:35:46;;;;;;;;;;;9.30;99.90;;;;;;5057677;28;20360;-85
2023/03/13 03:38:11;;;;;;;;;;;9.30;99.90;;;;;;5044625;28;20356;-84
2023/03/13 03:40:37;;;;;;;;;;;9.30;99.90;;;;;;5054255;28;19928;-84
2023/03/13 03:43:02;;;;;;;;;;;9.40;99.90;;;;;;5059443;28;19929;-83
2023/03/13 03:45:28;;;;;;;;;;;9.40;99.90;;;;;;5078864;28;19935;-84
2023/03/13 03:47:53;;;;;;;;;;;9.40;99.90;;;;;;5057371;28;19932;-84
2023/03/13 03:50:19;;;;;;;;;;;9.40;99.90;;;;;;5064693;28;19963;-84
2023/03/13 03:52:44;;;;;;;;;;;9.50;99.90;;;;;;5092276;28;19925;-85
2023/03/13 03:55:10;;;;;;;;;;;9.50;99.90;;;;;;5091109;28;19924;-84
2023/03/13 03:57:36;;;;;;;;;;;9.50;99.90;;;;;;5090315;28;19933;-84
2023/03/13 04:00:02;;;;;;;;;;;9.60;99.90;;;;;;5078091;28;20493;-85
2023/03/13 04:02:27;;;;;;;;;;;9.60;99.90;;;;;;5058075;28;19963;-83
2023/03/13 04:04:53;;;;;;;;;;;9.70;99.90;;;;;;5088021;28;19992;-85
2023/03/13 04:07:18;;;;;;;;;;;9.70;99.90;;;;;;5065726;28;19932;-84
2023/03/13 04:09:44;;;;;;;;;;;9.80;99.90;;;;;;5077793;28;19936;-84
2023/03/13 04:12:09;;;;;;;;;;;9.80;99.90;;;;;;5070983;28;20370;-85
2023/03/13 04:14:35;;;;;;;;;;;9.90;99.90;;;;;;5081061;28;19925;-85
2023/03/13 04:17:00;;;;;;;;;;;9.90;99.90;;;;;;5096637;28;19932;-84
2023/03/13 04:19:26;;;;;;;;;;;9.90;99.90;;;;;;5045674;28;20058;-84
2023/03/13 04:21:52;;;;;;;;;;;9.90;99.90;;;;;;5097081;28;19924;-84
2023/03/13 04:24:17;;;;;;;;;;;9.90;99.90;;;;;;5062656;28;19935;-84
2023/03/13 04:26:43;;;;;;;;;;;9.90;99.90;;;;;;5061926;28;20505;-84
2023/03/13 04:29:08;;;;;;;;;;;10.00;99.90;;;;;;5063228;28;19978;-85
2023/03/13 04:31:34;;;;;;;;;;;10.00;99.90;;;;;;5079299;28;20311;-85
2023/03/13 04:33:59;;;;;;;;;;;10.10;99.90;;;;;;5096655;28;19954;-85
2023/03/13 04:36:25;;;;;;;;;;;10.10;99.90;;;;;;5073409;28;19984;-85
2023/03/13 04:38:50;;;;;;;;;;;10.10;99.90;;;;;;5097065;28;19984;-84
2023/03/13 04:41:16;;;;;;;;;;;10.20;99.90;;;;;;5093453;28;20401;-85
2023/03/13 04:43:41;;;;;;;;;;;10.20;99.90;;;;;;5059034;28;19924;-85
2023/03/13 04:46:07;;;;;;;;;;;10.30;99.90;;;;;;5059704;28;19979;-85
2023/03/13 04:48:32;;;;;;;;;;;10.30;99.90;;;;;;5088243;28;19933;-84
2023/03/13 04:50:58;;;;;;;;;;;10.30;99.90;;;;;;5056270;28;19964;-85
2023/03/13 04:53:24;;;;;;;;;;;10.30;99.90;;;;;;5076919;28;20298;-85
2023/03/13 04:55:50;;;;;;;;;;;10.30;99.90;;;;;;5090883;28;19943;-85
2023/03/13 04:58:15;;;;;;;;;;;10.40;99.90;;;;;;5058442;28;19924;-85
2023/03/13 05:00:41;;;;;;;;;;;10.40;99.90;;;;;;5060532;28;19925;-84
2023/03/13 05:03:07;;;;;;;;;;;10.40;99.90;;;;;;5063338;28;19933;-84
2023/03/13 05:05:34;;;;;;;;;;;10.40;99.90;;;;;;5082480;28;19932;-83
2023/03/13 05:07:59;;;;;;;;;;;10.50;99.90;;;;;;5078875;28;19924;-84
2023/03/13 05:10:25;;;;;;;;;;;10.50;99.90;;;;;;5064921;28;20079;-85
2023/03/13 05:12:51;;;;;;;;;;;10.50;99.90;;;;;;5067374;28;19974;-84
2023/03/13 05:15:16;;;;;;;;;;;10.60;99.90;;;;;;5059040;28;19966;-84
2023/03/13 05:17:42;;;;;;;;;;;10.60;99.90;;;;;;5090086;28;20014;-85
2023/03/13 05:20:10;;;;;;;;;;;10.70;99.90;;;;;;5078961;28;19959;-84
2023/03/13 05:22:36;;;;;;;;;;;10.70;99.90;;;;;;5082052;28;19931;-85
2023/03/13 05:25:01;;;;;;;;;;;10.70;99.90;;;;;;5074760;28;19924;-85
2023/03/13 05:27:27;;;;;;;;;;;10.80;99.90;;;;;;5061741;28;19929;-85
2023/03/13 05:29:52;;;;;;;;;;;10.80;99.90;;;;;;5079804;28;19928;-83
2023/03/13 05:32:18;;;;;;;;;;;10.80;99.90;;;;;;5063036;28;19933;-85
2023/03/13 05:34:44;;;;;;;;;;;10.90;99.90;;;;;;5062046;28;20460;-85
2023/03/13 05:37:09;;;;;;;;;;;10.90;99.90;;;;;;5093049;28;19928;-84
2023/03/13 05:39:35;;;;;;;;;;;10.90;99.90;;;;;;5065039;28;19924;-84
2023/03/13 05:42:00;;;;;;;;;;;11.00;99.90;;;;;;5028375;28;19996;-84
2023/03/13 05:44:26;;;;;;;;;;;11.00;99.90;;;;;;5070009;28;19924;-84
2023/03/13 05:46:52;;;;;;;;;;;11.10;99.90;;;;;;5064251;28;20914;-85
2023/03/13 05:49:17;;;;;;;;;;;11.10;99.90;;;;;;5076232;28;19935;-85
2023/03/13 05:51:43;;;;;;;;;;;11.10;99.90;;;;;;5061213;28;20326;-84
2023/03/13 05:54:08;;;;;;;;;;;11.20;99.90;;;;;;5093481;28;19929;-85
2023/03/13 05:56:34;;;;;;;;;;;11.20;99.90;;;;;;5091510;28;19936;-85
2023/03/13 05:59:00;;;;;;;;;;;11.20;99.90;;;;;;5086598;28;19951;-84
2023/03/13 06:01:25;;;;;;;;;;;11.20;99.90;;;;;;5062142;28;19939;-84
2023/03/13 06:03:51;;;;;;;;;;;11.30;99.90;;;;;;5083116;28;19929;-84
2023/03/13 06:06:16;;;;;;;;;;;11.30;99.90;;;;;;5062510;28;19924;-84
2023/03/13 06:08:42;;;;;;;;;;;11.40;99.90;;;;;;5067459;28;19928;-84
2023/03/13 06:11:07;;;;;;;;;;;11.40;99.90;;;;;;5076787;28;20011;-84
2023/03/13 06:13:33;;;;;;;;;;;11.40;99.90;;;;;;5083052;28;19931;-84
2023/03/13 06:15:58;;;;;;;;;;;11.40;99.90;;;;;;5074332;28;20013;-84
2023/03/13 06:18:24;;;;;;;;;;;11.50;99.90;;;;;;5080700;28;19925;-84
2023/03/13 06:20:54;;;;;;;;;;;11.50;99.90;;;;;;5071531;28;19924;-84
2023/03/13 06:23:20;;;;;;;;;;;11.60;99.90;;;;;;5048902;28;19929;-83
2023/03/13 06:25:46;;;;;;;;;;;11.60;99.90;;;;;;5096315;28;19925;-84
2023/03/13 06:28:11;;;;;;;;;;;11.60;99.90;;;;;;5064261;28;19924;-83
2023/03/13 06:30:37;;;;;;;;;;;11.70;99.90;;;;;;5097864;28;19936;-84
2023/03/13 06:33:02;;;;;;;;;;;11.70;99.90;;;;;;5098353;28;19929;-84
2023/03/13 06:35:28;;;;;;;;;;;11.70;99.90;;;;;;5096313;28;19932;-82
2023/03/13 06:37:53;;;;;;;;;;;11.70;99.90;;;;;;5098724;28;19924;-82
2023/03/13 06:40:19;;;;;;;;;;;11.80;99.90;;;;;;5095685;28;19928;-83
2023/03/13 06:42:45;;;;;;;;;;;11.80;99.90;;;;;;5067499;28;20059;-83
2023/03/13 06:45:10;;;;;;;;;;;11.80;99.90;;;;;;5081943;28;19929;-83
2023/03/13 06:47:36;;;;;;;;;;;11.80;99.90;;;;;;5061768;28;19931;-83
2023/03/13 06:50:01;;;;;;;;;;;11.80;99.90;;;;;;5083042;28;19975;-83
2023/03/13 06:52:27;;;;;;;;;;;11.80;99.90;;;;;;5063667;28;19931;-83
2023/03/13 06:54:52;;;;;;;;;;;11.80;99.90;;;;;;5095649;28;19928;-83
2023/03/13 06:57:18;;;;;;;;;;;11.90;99.90;;;;;;5044747;28;20680;-83
2023/03/13 06:59:44;;;;;;;;;;;11.90;99.90;;;;;;5063240;28;19988;-83
2023/03/13 07:02:10;;;;;;;;;;;11.90;99.90;;;;;;5089739;28;19929;-84
2023/03/13 07:04:36;;;;;;;;;;;11.90;99.90;;;;;;5082675;28;19963;-83
2023/03/13 07:07:02;;;;;;;;;;;12.00;99.90;;;;;;5090928;28;19924;-84
2023/03/13 07:09:27;;;;;;;;;;;12.00;99.90;;;;;;5058459;28;19924;-83
2023/03/13 07:11:53;;;;;;;;;;;12.00;99.90;;;;;;5058313;28;20003;-83
2023/03/13 07:14:19;;;;;;;;;;;12.10;99.90;;;;;;5090314;28;19929;-84
2023/03/13 07:16:45;;;;;;;;;;;12.10;99.90;;;;;;5070969;28;19924;-84
2023/03/13 07:19:11;;;;;;;;;;;12.10;99.90;;;;;;5077642;28;19982;-83
2023/03/13 07:21:36;;;;;;;;;;;12.20;99.90;;;;;;5092856;28;19932;-83
2023/03/13 07:24:02;;;;;;;;;;;12.20;99.90;;;;;;5041949;28;20390;-83
2023/03/13 07:26:28;;;;;;;;;;;12.20;99.90;;;;;;5062176;28;19995;-83
2023/03/13 07:28:54;;;;;;;;;;;12.20;99.90;;;;;;5057848;28;19964;-83
2023/03/13 07:31:20;;;;;;;;;;;12.20;99.90;;;;;;5064969;28;19982;-83
2023/03/13 07:33:46;;;;;;;;;;;12.30;99.90;;;;;;5060885;28;19924;-81
2023/03/13 07:36:13;;;;;;;;;;;12.30;99.90;;;;;;5074310;28;19925;-82
2023/03/13 07:38:39;;;;;;;;;;;12.40;99.90;;;;;;5061004;28;19928;-82
2023/03/13 07:41:04;;;;;;;;;;;12.40;99.90;;;;;;5062671;28;20024;-82
2023/03/13 07:43:30;;;;;;;;;;;12.50;99.90;;;;;;5061587;28;19925;-82
2023/03/13 07:46:00;;;;;;;;;;;12.50;99.90;;;;;;5063937;28;19935;-81
2023/03/13 07:48:36;;;;;;;;;;;12.60;99.90;;;;;;5056585;28;19925;-82
2023/03/13 07:51:02;;;;;;;;;;;12.60;99.90;;;;;;5058822;28;20371;-83
2023/03/13 07:53:28;;;;;;;;;;;12.60;99.90;;;;;;5046309;28;19929;-82
2023/03/13 07:55:55;;;;;;;;;;;12.70;99.90;;;;;;5058814;28;19959;-82
2023/03/13 07:58:21;;;;;;;;;;;12.60;99.90;;;;;;5054111;28;19928;-82
2023/03/13 08:00:46;;;;;;;;;;;12.60;99.90;;;;;;5055459;28;19935;-82
2023/03/13 08:03:12;;;;;;;;;;;12.60;99.90;;;;;;5059300;28;19928;-81
2023/03/13 08:05:38;;;;;;;;;;;12.50;99.90;;;;;;5089269;28;19925;-83
2023/03/13 08:08:04;;;;;;;;;;;12.50;99.90;;;;;;5092348;28;19925;-82
2023/03/13 08:10:30;;;;;;;;;;;12.40;99.90;;;;;;5090433;28;20453;-82
2023/03/13 08:12:55;;;;;;;;;;;12.40;99.90;;;;;;5061345;28;19963;-82
2023/03/13 08:15:24;;;;;;;;;;;12.30;99.90;;;;;;5079590;28;19928;-82
2023/03/13 08:17:54;;;;;;;;;;;12.30;99.90;;;;;;5066012;28;19996;-81
2023/03/13 08:20:20;;;;;;;;;;;12.30;99.90;;;;;;5043815;28;19938;-82
2023/03/13 08:22:45;;;;;;;;;;;12.30;99.90;;;;;;5086885;28;20019;-82
2023/03/13 08:25:11;;;;;;;;;;;12.20;99.90;;;;;;5065677;28;19924;-81
2023/03/13 08:27:37;;;;;;;;;;;12.30;99.90;;;;;;5088689;28;19943;-82
2023/03/13 08:30:03;;;;;;;;;;;12.20;99.90;;;;;;5061184;28;19974;-82
2023/03/13 08:32:28;;;;;;;;;;;12.30;99.90;;;;;;5061046;28;20428;-81
2023/03/13 08:34:54;;;;;;;;;;;12.30;99.90;;;;;;5057025;28;20006;-82
2023/03/13 08:37:19;;;;;;;;;;;12.40;99.90;;;;;;5088845;28;19967;-82
2023/03/13 08:39:47;;;;;;;;;;;12.40;99.90;;;;;;5054972;28;20004;-82
2023/03/13 08:42:13;;;;;;;;;;;12.40;99.90;;;;;;5060279;28;19948;-82
2023/03/13 08:44:38;;;;;;;;;;;12.40;99.90;;;;;;5050525;28;20004;-82
2023/03/13 08:47:07;;;;;;;;;;;12.50;99.90;;;;;;5055444;28;19942;-82
2023/03/13 08:49:33;;;;;;;;;;;12.50;99.90;;;;;;5051016;28;19955;-83
2023/03/13 08:51:59;;;;;;;;;;;12.60;99.90;;;;;;5075910;28;19925;-83
2023/03/13 08:54:25;;;;;;;;;;;12.90;99.90;;;;;;5068747;28;19924;-83
2023/03/13 08:56:51;;;;;;;;;;;13.20;99.90;;;;;;5075590;28;19925;-83
2023/03/13 08:59:16;;;;;;;;;;;13.40;99.90;;;;;;5058986;28;20889;-84
2023/03/13 09:01:42;;;;;;;;;;;13.70;99.90;;;;;;5083658;28;19984;-83
2023/03/13 09:04:08;;;;;;;;;;;13.90;99.90;;;;;;5075866;28;19925;-83
2023/03/13 09:06:34;;;;;;;;;;;14.10;99.90;;;;;;5095737;28;19967;-83
2023/03/13 09:09:00;;;;;;;;;;;14.10;99.90;;;;;;5063350;28;19925;-84
2023/03/13 09:11:26;;;;;;;;;;;13.90;99.90;;;;;;5047905;28;19930;-83
2023/03/13 09:13:52;;;;;;;;;;;13.80;99.90;;;;;;5065012;28;19928;-83
2023/03/13 09:16:18;;;;;;;;;;;13.60;99.90;;;;;;5066899;28;20352;-82
2023/03/13 09:18:44;;;;;;;;;;;13.50;99.90;;;;;;5095278;28;19929;-83
2023/03/13 09:21:17;;;;;;;;;;;13.30;99.90;;;;;;5078124;28;19935;-84
2023/03/13 09:23:43;;;;;;;;;;;13.20;99.90;;;;;;5090947;28;19934;-83
2023/03/13 09:26:09;;;;;;;;;;;13.20;99.90;;;;;;5064851;28;20012;-84
2023/03/13 09:28:35;;;;;;;;;;;13.10;99.90;;;;;;5098588;28;19924;-83
2023/03/13 09:31:07;;;;;;;;;;;13.20;99.90;;;;;;5091948;28;19925;-84
2023/03/13 09:33:32;;;;;;;;;;;13.20;99.90;;;;;;5088110;28;19996;-83
2023/03/13 09:35:58;;;;;;;;;;;13.20;99.90;;;;;;5056148;28;20392;-84
2023/03/13 09:38:23;;;;;;;;;;;13.20;99.90;;;;;;5055736;28;19935;-83
2023/03/13 09:40:50;;;;;;;;;;;13.20;99.90;;;;;;5054472;28;20270;-83
2023/03/13 09:43:38;;;;;;;;;;;13.20;99.90;;;;;;5064313;28;19924;-83
2023/03/13 09:46:07;;;;;;;;;;;13.10;99.90;;;;;;5093832;28;19924;-83
2023/03/13 09:48:34;;;;;;;;;;;13.10;99.90;;;;;;5061009;28;19929;-84
2023/03/13 09:51:06;;;;;;;;;;;13.20;99.90;;;;;;5059104;28;20015;-84
2023/03/13 09:53:35;;;;;;;;;;;13.20;99.90;;;;;;5074262;28;19934;-84
2023/03/13 09:56:02;;;;;;;;;;;13.50;99.90;;;;;;5042029;28;19939;-84
2023/03/13 09:58:29;;;;;;;;;;;13.90;99.90;;;;;;5057585;28;20111;-84
2023/03/13 10:01:01;;;;;;;;;;;14.10;99.90;;;;;;5056200;28;19950;-83
2023/03/13 10:03:29;;;;;;;;;;;14.60;99.90;;;;;;5059312;28;19990;-85
2023/03/13 10:05:56;;;;;;;;;;;14.90;99.90;;;;;;5075580;28;20020;-84
2023/03/13 10:08:23;;;;;;;;;;;14.90;99.90;;;;;;5060790;28;20386;-84
2023/03/13 10:10:52;;;;;;;;;;;14.70;99.90;;;;;;5060983;28;20559;-85
2023/03/13 10:13:32;;;;;;;;;;;14.50;99.90;;;;;;5066922;28;19991;-85
2023/03/13 10:16:00;;;;;;;;;;;14.40;99.90;;;;;;5048461;28;19933;-85
2023/03/13 10:18:26;;;;;;;;;;;14.20;99.90;;;;;;5062862;28;19929;-84
2023/03/13 10:20:55;;;;;;;;;;;14.20;99.90;;;;;;5056126;28;20356;-83
2023/03/13 10:23:44;;;;;;;;;;;14.10;99.90;;;;;;5070091;28;19970;-81
2023/03/13 10:26:14;;;;;;;;;;;14.00;99.90;;;;;;5044147;28;19931;-82
2023/03/13 10:28:40;;;;;;;;;;;14.00;99.90;;;;;;5075215;28;19939;-84
2023/03/13 10:31:10;;;;;;;;;;;13.90;99.90;;;;;;5040763;28;20638;-84
2023/03/13 10:33:36;;;;;;;;;;;13.90;99.90;;;;;;5072285;28;19932;-84
2023/03/13 10:36:05;;;;;;;;;;;13.90;99.90;;;;;;5080305;28;20283;-83
2023/03/13 10:38:32;;;;;;;;;;;13.90;99.90;;;;;;5061844;28;19995;-84
2023/03/13 10:40:57;;;;;;;;;;;13.90;99.90;;;;;;5081222;28;20002;-83
2023/03/13 10:43:24;;;;;;;;;;;13.90;99.90;;;;;;5064858;28;19929;-83
2023/03/13 10:45:49;;;;;;;;;;;13.90;99.90;;;;;;5090727;28;20614;-84
2023/03/13 10:48:19;;;;;;;;;;;13.90;99.90;;;;;;5059005;28;19928;-84
2023/03/13 10:50:45;;;;;;;;;;;13.90;99.90;;;;;;5092342;28;20079;-84
2023/03/13 10:53:20;;;;;;;;;;;13.90;99.90;;;;;;5058390;28;19947;-84
2023/03/13 10:55:46;;;;;;;;;;;14.00;99.90;;;;;;5094458;28;19942;-84
2023/03/13 10:58:44;;;;;;;;;;;14.10;99.90;;;;;;5088439;28;19963;-84
2023/03/13 11:01:23;;;;;;;;;;;14.10;99.90;;;;;;5044244;28;20001;-84
2023/03/13 11:03:50;;;;;;;;;;;14.20;99.90;;;;;;5045627;28;19930;-84
2023/03/13 11:06:22;;;;;;;;;;;14.30;99.90;;;;;;5073740;28;19933;-84
2023/03/13 11:08:48;;;;;;;;;;;14.40;99.90;;;;;;5061835;28;19925;-84
2023/03/13 11:11:18;;;;;;;;;;;14.50;99.90;;;;;;5065781;28;19978;-82
2023/03/13 11:13:44;;;;;;;;;;;14.60;99.90;;;;;;5095698;28;20011;-82
2023/03/13 11:16:12;;;;;;;;;;;14.70;99.90;;;;;;5056061;28;20259;-82
2023/03/13 11:18:50;;;;;;;;;;;14.80;99.90;;;;;;5095513;28;19924;-83
2023/03/13 11:21:22;;;;;;;;;;;14.90;99.90;;;;;;5094900;28;19935;-83
2023/03/13 11:24:00;;;;;;;;;;;15.00;99.90;;;;;;5060865;28;19924;-83
2023/03/13 11:26:33;;;;;;;;;;;15.10;99.90;;;;;;5058412;28;19924;-83
2023/03/13 11:29:05;;;;;;;;;;;15.30;99.90;;;;;;5072276;28;19938;-82
2023/03/13 11:31:37;;;;;;;;;;;15.60;99.90;;;;;;5058944;28;20325;-83
2023/03/13 11:34:15;;;;;;;;;;;15.80;99.90;;;;;;5060576;28;20426;-83
2023/03/13 11:37:02;;;;;;;;;;;16.00;99.90;;;;;;5063906;28;19947;-84
2023/03/13 11:39:47;;;;;;;;;;;16.20;99.90;;;;;;5064038;28;19939;-84
2023/03/13 11:42:25;;;;;;;;;;;16.40;99.90;;;;;;5063108;28;20177;-82
2023/03/13 11:45:05;;;;;;;;;;;16.50;99.90;;;;;;5064886;28;20262;-83
2023/03/13 11:47:31;;;;;;;;;;;16.60;99.90;;;;;;5076906;28;19925;-84
2023/03/13 11:49:56;;;;;;;;;;;16.60;99.90;;;;;;5063232;28;19940;-84
2023/03/13 11:52:36;;;;;;;;;;;16.70;99.90;;;;;;5059755;28;19940;-83
2023/03/13 11:55:24;;;;;;;;;;;16.60;99.90;;;;;;5063938;28;20586;-83
2023/03/13 11:57:56;;;;;;;;;;;16.50;99.90;;;;;;5064275;28;19977;-83
2023/03/13 12:00:27;;;;;;;;;;;16.30;99.90;;;;;;5058179;28;19984;-83
2023/03/13 12:02:53;;;;;;;;;;;16.40;99.90;;;;;;5079473;28;20452;-83
2023/03/13 12:05:19;;;;;;;;;;;16.30;99.90;;;;;;5044980;28;19928;-83
2023/03/13 12:07:45;;;;;;;;;;;16.30;99.90;;;;;;5091645;28;19932;-83
2023/03/13 12:10:12;;;;;;;;;;;16.50;99.90;;;;;;5063486;28;19924;-82
2023/03/13 12:12:48;;;;;;;;;;;16.70;99.90;;;;;;5057566;28;19939;-82
2023/03/13 12:15:17;;;;;;;;;;;16.90;99.90;;;;;;5086285;28;20062;-82
2023/03/13 12:17:53;;;;;;;;;;;17.00;99.90;;;;;;5086911;28;19961;-83
2023/03/13 12:20:24;;;;;;;;;;;17.00;99.10;;;;;;5083890;28;20023;-83
2023/03/13 12:23:03;;;;;;;;;;;16.80;97.60;;;;;;5085998;28;19940;-83
2023/03/13 12:25:36;;;;;;;;;;;16.80;99.90;;;;;;5053296;28;19936;-83
2023/03/13 12:28:23;;;;;;;;;;;16.80;99.90;;;;;;5086466;28;19924;-83
2023/03/13 12:30:53;;;;;;;;;;;16.80;99.90;;;;;;5080586;28;19925;-83
2023/03/13 12:33:23;;;;;;;;;;;16.90;99.90;;;;;;5065686;28;19943;-84
2023/03/13 12:36:09;;;;;;;;;;;17.00;96.80;;;;;;5091856;28;19935;-83
2023/03/13 12:38:40;;;;;;;;;;;17.10;97.00;;;;;;5068360;28;19947;-84
2023/03/13 12:41:17;;;;;;;;;;;17.20;98.00;;;;;;5061779;28;19925;-83
2023/03/13 12:43:43;;;;;;;;;;;17.30;98.30;;;;;;5080978;28;19928;-84
2023/03/13 12:46:18;;;;;;;;;;;17.40;98.50;;;;;;5039979;28;19975;-83
2023/03/13 12:48:52;;;;;;;;;;;17.50;97.30;;;;;;5093975;28;19925;-84
2023/03/13 12:51:36;;;;;;;;;;;17.50;95.80;;;;;;5066742;28;19978;-84
2023/03/13 12:54:02;;;;;;;;;;;17.50;96.10;;;;;;5065682;28;19924;-83
2023/03/13 12:56:31;;;;;;;;;;;17.40;94.50;;;;;;5067946;28;19954;-84
2023/03/13 12:59:15;;;;;;;;;;;17.40;95.10;;;;;;5086011;28;19932;-82
2023/03/13 13:01:43;;;;;;;;;;;17.50;96.30;;;;;;5055494;28;19951;-83
2023/03/13 13:04:12;;;;;;;;;;;17.70;97.30;;;;;;5088660;28;20485;-83
2023/03/13 13:07:04;;;;;;;;;;;17.70;95.50;;;;;;5037741;28;20003;-83
2023/03/13 13:09:40;;;;;;;;;;;17.50;95.20;;;;;;5058557;28;19972;-83
2023/03/13 13:12:19;;;;;;;;;;;17.20;97.60;;;;;;5062295;28;19924;-83
2023/03/13 13:14:48;;;;;;;;;;;17.00;97.40;;;;;;5062170;28;20007;-83
2023/03/13 13:17:13;;;;;;;;;;;17.00;98.20;;;;;;5096210;28;19932;-83
2023/03/13 13:19:39;;;;;;;;;;;16.90;97.80;;;;;;5082303;28;19988;-84
2023/03/13 13:22:23;;;;;;;;;;;16.80;98.40;;;;;;5071885;28;19924;-83
2023/03/13 13:24:51;;;;;;;;;;;16.80;98.10;;;;;;5096299;28;20019;-83
2023/03/13 13:27:26;;;;;;;;;;;16.70;98.30;;;;;;5060860;28;19925;-84
2023/03/13 13:29:53;;;;;;;;;;;16.60;96.00;;;;;;5061733;28;19984;-83
2023/03/13 13:32:27;;;;;;;;;;;16.70;98.50;;;;;;5079104;28;19931;-81
2023/03/13 13:34:54;;;;;;;;;;;16.90;95.50;;;;;;5061772;28;19951;-84
2023/03/13 13:37:20;;;;;;;;;;;17.10;95.40;;;;;;5094277;28;19925;-83
2023/03/13 13:39:48;;;;;;;;;;;17.10;94.90;;;;;;5090507;28;19936;-84
2023/03/13 13:42:29;;;;;;;;;;;17.20;93.50;;;;;;5064587;28;19924;-83
2023/03/13 13:44:59;;;;;;;;;;;17.20;91.60;;;;;;5087718;28;19936;-84
2023/03/13 13:47:25;;;;;;;;;;;17.20;91.70;;;;;;5061307;28;19982;-84
2023/03/13 13:49:55;;;;;;;;;;;17.20;92.70;;;;;;5064371;28;19928;-84
2023/03/13 13:52:40;;;;;;;;;;;17.20;91.00;;;;;;5063020;28;19970;-83
2023/03/13 13:55:25;;;;;;;;;;;17.20;88.40;;;;;;5067876;28;19970;-83
2023/03/13 13:58:17;;;;;;;;;;;17.10;91.20;;;;;;5064134;28;19964;-83
2023/03/13 14:00:51;;;;;;;;;;;17.10;92.40;;;;;;5093257;28;19924;-83
2023/03/13 14:03:18;;;;;;;;;;;16.90;91.70;;;;;;5068311;28;20405;-82
2023/03/13 14:05:46;;;;;;;;;;;16.50;92.20;;;;;;5065862;28;19929;-83
2023/03/13 14:08:12;;;;;;;;;;;16.40;93.80;;;;;;5091572;28;19978;-83
2023/03/13 14:10:41;;;;;;;;;;;16.30;94.60;;;;;;5097442;28;20455;-83
2023/03/13 14:13:12;;;;;;;;;;;16.40;95.50;;;;;;5083328;28;19946;-83
2023/03/13 14:15:41;;;;;;;;;;;16.50;95.10;;;;;;5091379;28;19929;-83
2023/03/13 14:18:23;;;;;;;;;;;16.50;94.20;;;;;;5070424;28;19928;-82
2023/03/13 14:20:54;;;;;;;;;;;16.60;95.50;;;;;;5070189;28;19946;-83
2023/03/13 14:23:30;;;;;;;;;;;16.70;94.40;;;;;;5064381;28;20046;-83
2023/03/13 14:25:56;;;;;;;;;;;16.70;94.10;;;;;;5092697;28;19924;-83
2023/03/13 14:28:23;;;;;;;;;;;16.70;94.20;;;;;;5072744;28;19925;-83